Latest Weather Observations for Little Bay

IDN60901

Issued at 6:31 pm EDT Sunday 28 February 2021 (issued every 10 minutes, with the page automatically refreshed every 10 minutes)

About weather observations | Map of Sydney area stations | Latest observations for Sydney area | Other Formats
Station Details ID: 066051 Name: LITTLE BAY (THE COAST GOLF CLUB) Lat: -33.98 Lon: 151.25 Height: 22.0 m
Data from the previous 72 hours. | See also: Recent months at Little Bay
Date/Time
EDT
Temp
°C
App
Temp
°C
Dew
Point
°C
Rel
Hum
%
Delta-T
°C
Wind Press
QNH
hPa
Press
MSL
hPa
Rain since
9am
mm
Dir  Spd
km/h
Gust
km/h
Spd
kts
Gust
kts
28/06:30pm - - - - - ESE 11 17 6 9 - - -
28/06:00pm - - - - - ESE 17 20 9 11 - - -
28/05:30pm - - - - - SE 17 19 9 10 - - -
28/05:00pm - - - - - SE 17 19 9 10 - - -
28/04:30pm - - - - - SE 13 17 7 9 - - -
28/04:00pm - - - - - SE 15 17 8 9 - - -
28/03:30pm - - - - - SE 15 19 8 10 - - -
28/03:00pm - - - - - SSE 17 20 9 11 - - -
28/02:30pm - - - - - SSE 15 19 8 10 - - -
28/02:00pm - - - - - SSE 15 20 8 11 - - -
28/01:30pm - - - - - SSE 19 22 10 12 - - -
28/01:00pm - - - - - S 19 22 10 12 - - -
28/12:30pm - - - - - S 19 24 10 13 - - -
28/12:00pm - - - - - SSW 19 26 10 14 - - -
28/11:30am - - - - - SSW 19 24 10 13 - - -
28/11:00am - - - - - SSW 20 28 11 15 - - -
28/10:30am - - - - - SSW 19 24 10 13 - - -
28/10:00am - - - - - SSW 20 28 11 15 - - -
28/09:30am - - - - - SSW 19 26 10 14 - - -
28/09:00am - - - - - SSW 22 30 12 16 - - -
28/08:30am - - - - - SSW 19 28 10 15 - - -
28/08:00am - - - - - SSW 20 28 11 15 - - -
28/07:30am - - - - - S 19 30 10 16 - - -
28/07:00am - - - - - S 17 24 9 13 - - -
28/06:30am - - - - - SW 7 9 4 5 - - -
28/06:00am - - - - - SSW 11 17 6 9 - - -
28/05:30am - - - - - SW 6 9 3 5 - - -
28/05:00am - - - - - SW 6 7 3 4 - - -
28/04:30am - - - - - S 4 7 2 4 - - -
28/04:00am - - - - - CALM 0 0 0 0 - - -
28/03:30am - - - - - CALM 0 0 0 0 - - -
28/03:00am - - - - - WSW 2 6 1 3 - - -
28/02:30am - - - - - NNW 7 9 4 5 - - -
28/02:00am - - - - - NNW 9 13 5 7 - - -
28/01:30am - - - - - N 7 11 4 6 - - -
28/01:00am - - - - - N 9 15 5 8 - - -
28/12:30am - - - - - N 6 9 3 5 - - -
28/12:00am - - - - - N 9 13 5 7 - - -
 
Date/Time
EDT
Temp
°C
App
Temp
°C
Dew
Point
°C
Rel
Hum
%
Delta-T
°C
Wind Press
QNH
hPa
Press
MSL
hPa
Rain since
9am
mm
Dir  Spd
km/h
Gust
km/h
Spd
kts
Gust
kts
27/11:30pm - - - - - N 11 15 6 8 - - -
27/11:00pm - - - - - N 7 13 4 7 - - -
27/10:30pm - - - - - N 6 9 3 5 - - -
27/10:00pm - - - - - N 7 13 4 7 - - -
27/09:30pm - - - - - N 11 17 6 9 - - -
27/09:00pm - - - - - N 13 19 7 10 - - -
27/08:30pm - - - - - NNE 15 24 8 13 - - -
27/08:00pm - - - - - NNE 17 22 9 12 - - -
27/07:30pm - - - - - NNE 15 22 8 12 - - -
27/07:00pm - - - - - NNE 17 22 9 12 - - -
27/06:30pm - - - - - NNE 13 24 7 13 - - -
27/06:00pm - - - - - NNE 9 13 5 7 - - -
27/05:30pm - - - - - NNE 9 13 5 7 - - -
27/05:00pm - - - - - NNE 11 15 6 8 - - -
27/04:30pm - - - - - NE 9 15 5 8 - - -
27/04:00pm - - - - - NNE 9 17 5 9 - - -
27/03:30pm - - - - - NNE 11 17 6 9 - - -
27/03:00pm - - - - - NE 7 11 4 6 - - -
27/02:30pm - - - - - NE 7 9 4 5 - - -
27/02:00pm - - - - - NNE 9 13 5 7 - - -
27/01:30pm - - - - - NNE 11 17 6 9 - - -
27/01:00pm - - - - - NNE 9 15 5 8 - - -
27/12:30pm - - - - - NNE 7 11 4 6 - - -
27/12:00pm - - - - - NE 7 13 4 7 - - -
27/11:30am - - - - - CALM 0 0 0 0 - - -
27/11:00am - - - - - CALM 0 0 0 0 - - -
27/10:30am - - - - - CALM 0 2 0 1 - - -
27/10:00am - - - - - N 4 7 2 4 - - -
27/09:30am - - - - - N 2 6 1 3 - - -
27/09:00am - - - - - NNE 6 11 3 6 - - -
27/08:30am - - - - - NNE 4 9 2 5 - - -
27/08:00am - - - - - CALM 0 0 0 0 - - -
27/07:30am - - - - - NNW 2 6 1 3 - - -
27/07:00am - - - - - NNW 4 7 2 4 - - -
27/06:30am - - - - - CALM 0 2 0 1 - - -
27/06:00am - - - - - CALM 0 0 0 0 - - -
27/05:30am - - - - - E 4 6 2 3 - - -
27/05:00am - - - - - E 6 9 3 5 - - -
27/04:30am - - - - - E 7 9 4 5 - - -
27/04:00am - - - - - ENE 7 9 4 5 - - -
27/03:30am - - - - - E 7 13 4 7 - - -
27/03:00am - - - - - E 9 13 5 7 - - -
27/02:30am - - - - - E 9 15 5 8 - - -
27/02:00am - - - - - E 9 11 5 6 - - -
27/01:30am - - - - - E 9 15 5 8 - - -
27/01:00am - - - - - E 11 15 6 8 - - -
27/12:30am - - - - - E 11 17 6 9 - - -
27/12:00am - - - - - E 11 15 6 8 - - -
 
Date/Time
EDT
Temp
°C
App
Temp
°C
Dew
Point
°C
Rel
Hum
%
Delta-T
°C
Wind Press
QNH
hPa
Press
MSL
hPa
Rain since
9am
mm
Dir  Spd
km/h
Gust
km/h
Spd
kts
Gust
kts
26/11:30pm - - - - - ESE 13 19 7 10 - - -
26/11:00pm - - - - - ESE 15 20 8 11 - - -
26/10:30pm - - - - - ESE 17 22 9 12 - - -
26/10:00pm - - - - - ESE 17 24 9 13 - - -
26/09:30pm - - - - - ESE 20 28 11 15 - - -
26/09:00pm - - - - - ESE 19 24 10 13 - - -
26/08:30pm - - - - - SE 20 26 11 14 - - -
26/08:00pm - - - - - SE 22 26 12 14 - - -
26/07:30pm - - - - - SE 22 28 12 15 - - -
26/07:00pm - - - - - SE 24 30 13 16 - - -
26/06:30pm - - - - - SE 22 28 12 15 - - -
26/06:00pm - - - - - SE 24 28 13 15 - - -
26/05:30pm - - - - - SE 24 30 13 16 - - -
26/05:00pm - - - - - SE 22 28 12 15 - - -
26/04:30pm - - - - - SE 20 26 11 14 - - -
26/04:00pm - - - - - SSE 17 20 9 11 - - -
26/03:30pm - - - - - SSE 17 20 9 11 - - -
26/03:00pm - - - - - SE 17 20 9 11 - - -
26/02:30pm - - - - - SE 15 17 8 9 - - -
26/02:00pm - - - - - SE 15 20 8 11 - - -
26/01:30pm - - - - - SE 15 19 8 10 - - -
26/01:00pm - - - - - SSE 15 17 8 9 - - -
26/12:30pm - - - - - SSE 15 19 8 10 - - -
26/12:00pm - - - - - SSE 15 20 8 11 - - -
26/11:30am - - - - - S 15 20 8 11 - - -
26/11:00am - - - - - SSW 17 20 9 11 - - -
26/10:30am - - - - - SSW 17 20 9 11 - - -
26/10:00am - - - - - SSW 17 22 9 12 - - -
26/09:30am - - - - - SSW 15 20 8 11 - - -
26/09:00am - - - - - SSW 15 20 8 11 - - -
26/08:30am - - - - - SSW 13 20 7 11 - - -
26/08:00am - - - - - WSW 7 13 4 7 - - -
26/07:30am - - - - - WSW 9 13 5 7 - - -
26/07:00am - - - - - W 9 13 5 7 - - -
26/06:30am - - - - - WNW 11 15 6 8 - - -
26/06:00am - - - - - W 11 15 6 8 - - -
26/05:30am - - - - - WNW 11 20 6 11 - - -
26/05:00am - - - - - WNW 13 20 7 11 - - -
26/04:30am - - - - - WNW 13 19 7 10 - - -
26/04:00am - - - - - WNW 11 15 6 8 - - -
26/03:30am - - - - - WNW 9 15 5 8 - - -
26/03:00am - - - - - WNW 7 9 4 5 - - -
26/02:30am - - - - - WNW 6 7 3 4 - - -
26/02:00am - - - - - NW 6 9 3 5 - - -
26/01:30am - - - - - NNW 11 17 6 9 - - -
26/01:00am - - - - - NNW 7 9 4 5 - - -
26/12:30am - - - - - NNW 7 11 4 6 - - -
26/12:00am - - - - - NNW 7 9 4 5 - - -
 
Date/Time
EDT
Temp
°C
App
Temp
°C
Dew
Point
°C
Rel
Hum
%
Delta-T
°C
Wind Press
QNH
hPa
Press
MSL
hPa
Rain since
9am
mm
Dir  Spd
km/h
Gust
km/h
Spd
kts
Gust
kts
25/11:30pm - - - - - N 13 17 7 9 - - -
25/11:00pm - - - - - NNW 11 17 6 9 - - -
25/10:30pm - - - - - WNW 9 13 5 7 - - -
25/10:00pm - - - - - NW 4 9 2 5 - - -
25/09:30pm - - - - - NW 6 7 3 4 - - -
25/09:00pm - - - - - NW 4 6 2 3 - - -
25/08:30pm - - - - - NW 6 9 3 5 - - -
25/08:00pm - - - - - NNW 9 11 5 6 - - -
25/07:30pm - - - - - N 9 15 5 8 - - -
25/07:00pm - - - - - NNW 9 13 5 7 - - -

Latest Capital City Observations: Canberra | Sydney | Melbourne | Brisbane | Adelaide | Perth | Hobart | Darwin

Other formats

Comma delimited format used in spreadsheet applications
http://www.bom.gov.au/fwo/IDN60901/IDN60901.94780.axf

JavaScript Object Notation format (JSON) in row-major order
http://www.bom.gov.au/fwo/IDN60901/IDN60901.94780.json

Data quality

Most of these data are generated automatically and are frequently updated. Quality checks on data are not normally performed. It is possible for incorrect values to appear. Refer to information at About Latest Weather Observations and please check the disclaimer before using these data.